Time;durP1;ratioP1;P1;durP2;ratioP2;P2;SDS_P1;SDS_P2;PMS_P1;PMS_P2;Temp;Humidity;BMP_temperature;BMP_pressure;BME280_temperature;BME280_humidity;BME280_pressure;Samples;Min_cycle;Max_cycle;Signal;HPM_P1;HPM_P2
2023/05/05 06:56:11;;;;;;;7.63;6.50;;;;;;;;;;5127581;23;20106;-83
2023/05/05 06:58:36;;;;;;;6.40;5.80;;;;;;;;;;4929106;29;20040;-82
2023/05/05 07:01:02;;;;;;;7.45;6.70;;;;;;;;;;4906348;29;20039;-86
2023/05/05 07:03:28;;;;;;;6.80;6.20;;;;;;;;;;4918352;29;20035;-83
2023/05/05 07:05:54;;;;;;;7.72;6.25;;;;;;;;;;4918160;29;20384;-83
2023/05/05 07:08:19;;;;;;;6.72;6.07;;;;;;;;;;4918501;29;20479;-83
2023/05/05 07:10:46;;;;;;;6.53;5.93;;;;;;;;;;4918361;29;20032;-83
2023/05/05 07:13:11;;;;;;;6.65;6.05;;;;;;;;;;4918329;29;20032;-83
2023/05/05 07:15:44;;;;;;;6.35;5.78;;;;;;;;;;4918037;29;20024;-83
2023/05/05 07:18:10;;;;;;;7.25;6.55;;;;;;;;;;4918192;29;20035;-82
2023/05/05 07:20:36;;;;;;;6.65;6.15;;;;;;;;;;4918137;29;20028;-83
2023/05/05 07:23:01;;;;;;;7.10;5.70;;;;;;;;;;4918139;29;20360;-83
2023/05/05 07:25:27;;;;;;;7.70;6.93;;;;;;;;;;4918079;29;20588;-82
2023/05/05 07:27:52;;;;;;;6.80;5.82;;;;;;;;;;4918672;29;20433;-84
2023/05/05 07:30:18;;;;;;;7.70;5.70;;;;;;;;;;4901113;29;20402;-84
2023/05/05 07:32:43;;;;;;;7.00;6.30;;;;;;;;;;4917623;29;20040;-83
2023/05/05 07:35:09;;;;;;;7.43;6.18;;;;;;;;;;4918201;29;20110;-82
2023/05/05 07:37:35;;;;;;;7.13;5.45;;;;;;;;;;4918232;29;20035;-81
2023/05/05 07:40:00;;;;;;;7.63;6.68;;;;;;;;;;4918018;29;20107;-81
2023/05/05 07:42:25;;;;;;;6.13;5.63;;;;;;;;;;4917827;29;20028;-81
2023/05/05 07:44:51;;;;;;;6.05;5.45;;;;;;;;;;4917805;29;20051;-82
2023/05/05 07:47:17;;;;;;;6.10;5.60;;;;;;;;;;4917908;29;20079;-82
2023/05/05 07:49:42;;;;;;;7.07;6.40;;;;;;;;;;4917853;29;20039;-81
2023/05/05 19:29:33;;;;;;;7.32;6.70;;;;;;;;;;4935902;29;20056;-80
2023/05/05 19:31:59;;;;;;;7.45;6.75;;;;;;;;;;4937619;29;20042;-77
2023/05/05 19:34:24;;;;;;;8.02;7.22;;;;;;;;;;4936974;29;20031;-75
2023/05/05 19:36:50;;;;;;;7.50;6.57;;;;;;;;;;4941615;29;20478;-78
2023/05/05 19:39:15;;;;;;;7.55;6.85;;;;;;;;;;4936776;29;20068;-77
2023/05/05 19:41:41;;;;;;;9.83;7.47;;;;;;;;;;4937217;29;20094;-78
2023/05/05 19:44:06;;;;;;;8.23;7.43;;;;;;;;;;4936742;29;20228;-77
2023/05/05 19:46:32;;;;;;;8.15;7.38;;;;;;;;;;4937104;29;20475;-78
2023/05/05 19:48:57;;;;;;;6.65;6.05;;;;;;;;;;4936983;29;20071;-77
2023/05/05 19:51:23;;;;;;;6.72;6.03;;;;;;;;;;4937217;29;20110;-78
2023/05/05 19:53:49;;;;;;;8.80;7.68;;;;;;;;;;4937076;29;20028;-77
2023/05/05 19:56:15;;;;;;;8.38;6.63;;;;;;;;;;4936668;29;20115;-79
2023/05/05 19:58:58;;;;;;;8.20;7.40;;;;;;;;;;4936732;29;20415;-80
2023/05/05 20:01:24;;;;;;;6.50;5.93;;;;;;;;;;4936975;29;20594;-80
2023/05/05 20:03:53;;;;;;;8.05;6.60;;;;;;;;;;4937005;29;20031;-78
2023/05/05 20:06:19;;;;;;;;;;;;;;;;;;4936960;29;20505;-79
2023/05/05 20:08:44;;;;;;;9.45;7.20;;;;;;;;;;4936653;29;19919;-79
2023/05/05 20:11:10;;;;;;;8.00;7.30;;;;;;;;;;4936526;29;20027;-78
2023/05/05 20:13:37;;;;;;;7.38;6.32;;;;;;;;;;4936490;29;20071;-78
2023/05/05 20:16:03;;;;;;;8.10;7.25;;;;;;;;;;4936517;29;20028;-77
2023/05/05 20:18:28;;;;;;;6.43;5.85;;;;;;;;;;4936849;29;20082;-81
2023/05/05 20:20:55;;;;;;;7.25;6.35;;;;;;;;;;4941462;29;20474;-77
2023/05/05 20:23:20;;;;;;;7.47;6.72;;;;;;;;;;4936097;29;20030;-77
2023/05/05 20:25:46;;;;;;;6.80;6.10;;;;;;;;;;4948580;29;20023;-81
2023/05/05 20:28:11;;;;;;;8.07;6.45;;;;;;;;;;4955595;29;20499;-79
2023/05/05 20:30:36;;;;;;;8.50;6.68;;;;;;;;;;4955350;29;20110;-79
2023/05/05 20:33:02;;;;;;;6.90;6.22;;;;;;;;;;4938347;29;20024;-79
2023/05/05 20:35:27;;;;;;;7.22;6.53;;;;;;;;;;4952216;28;20031;-79
2023/05/05 20:37:53;;;;;;;6.95;6.00;;;;;;;;;;4944951;29;20086;-78
2023/05/05 20:40:18;;;;;;;8.10;7.30;;;;;;;;;;4950242;29;20418;-78
2023/05/05 20:42:44;;;;;;;8.30;7.50;;;;;;;;;;4939882;29;20427;-78
2023/05/05 20:45:10;;;;;;;7.35;6.65;;;;;;;;;;4940079;29;19969;-77
2023/05/05 20:47:35;;;;;;;7.15;6.00;;;;;;;;;;4940257;29;20032;-79
2023/05/05 20:50:01;;;;;;;7.28;6.45;;;;;;;;;;4940322;29;20446;-79
2023/05/05 20:52:27;;;;;;;6.72;5.70;;;;;;;;;;4922938;29;20032;-77
2023/05/05 20:54:52;;;;;;;8.18;7.32;;;;;;;;;;4939900;29;20475;-81
2023/05/05 20:57:17;;;;;;;7.10;6.43;;;;;;;;;;4950147;29;20032;-82
2023/05/05 20:59:43;;;;;;;6.65;6.05;;;;;;;;;;4939515;29;20058;-77
2023/05/05 21:02:08;;;;;;;7.43;6.72;;;;;;;;;;4946629;29;20042;-77
2023/05/05 21:04:35;;;;;;;7.53;6.75;;;;;;;;;;4922674;29;20087;-77
2023/05/05 21:07:00;;;;;;;7.40;6.70;;;;;;;;;;4939691;29;20027;-78
2023/05/05 21:09:26;;;;;;;6.70;6.00;;;;;;;;;;4939522;29;20024;-77
2023/05/05 21:11:51;;;;;;;7.45;6.72;;;;;;;;;;4939378;29;20047;-77
2023/05/05 21:14:17;;;;;;;6.72;5.97;;;;;;;;;;4939776;29;20498;-77
2023/05/05 21:16:42;;;;;;;7.50;6.80;;;;;;;;;;4939586;29;20083;-77
2023/05/05 21:19:08;;;;;;;6.15;5.55;;;;;;;;;;4944345;29;20035;-79
2023/05/05 21:21:33;;;;;;;9.45;6.55;;;;;;;;;;4939129;29;20434;-79
2023/05/05 21:23:59;;;;;;;8.20;6.15;;;;;;;;;;4949561;29;20059;-76
2023/05/05 21:26:24;;;;;;;7.63;6.80;;;;;;;;;;4947566;29;20028;-76
2023/05/05 21:28:52;;;;;;;6.65;6.05;;;;;;;;;;4949172;29;20039;-78
2023/05/05 21:31:18;;;;;;;6.80;6.20;;;;;;;;;;4922181;29;20043;-79
2023/05/05 21:33:45;;;;;;;7.63;6.50;;;;;;;;;;4939475;29;20467;-78
